Time;durP1;ratioP1;P1;durP2;ratioP2;P2;SDS_P1;SDS_P2;PMS_P1;PMS_P2;Temp;Humidity;BMP_temperature;BMP_pressure;BME280_temperature;BME280_humidity;BME280_pressure;Samples;Min_cycle;Max_cycle;Signal;HPM_P1;HPM_P2
2023/09/02 00:02:16;;;;;;;1.60;1.40;;;18.90;81.90;;;;;;5035740;28;20025;-64
2023/09/02 00:04:42;;;;;;;3.08;1.27;;;18.80;81.90;;;;;;5026629;28;20036;-63
2023/09/02 00:07:07;;;;;;;1.42;1.30;;;18.80;81.90;;;;;;5032581;28;20037;-64
2023/09/02 00:09:33;;;;;;;1.55;1.35;;;18.80;81.90;;;;;;5027463;28;20094;-64
2023/09/02 00:11:58;;;;;;;1.52;1.42;;;18.80;81.90;;;;;;5025390;28;20039;-64
2023/09/02 00:14:24;;;;;;;1.52;1.33;;;18.70;81.90;;;;;;5030391;28;20450;-64
2023/09/02 00:16:49;;;;;;;1.30;1.20;;;18.70;81.90;;;;;;5026054;28;20401;-64
2023/09/02 00:19:18;;;;;;;1.50;1.40;;;18.70;81.90;;;;;;5023045;28;20038;-64
2023/09/02 00:21:43;;;;;;;1.60;1.30;;;18.70;82.10;;;;;;5027175;28;20451;-63
2023/09/02 00:24:09;;;;;;;1.67;1.27;;;18.70;82.20;;;;;;5023514;28;20033;-64
2023/09/02 00:26:35;;;;;;;1.98;1.40;;;18.70;82.20;;;;;;5025786;28;20039;-64
2023/09/02 00:29:01;;;;;;;1.60;1.40;;;18.70;82.10;;;;;;5029123;28;20413;-64
2023/09/02 00:31:30;;;;;;;1.30;1.20;;;18.70;82.10;;;;;;5028766;28;20448;-64
2023/09/02 00:33:56;;;;;;;1.38;1.27;;;18.70;82.20;;;;;;5025908;28;20639;-63
2023/09/02 00:36:22;;;;;;;3.75;1.40;;;18.70;82.10;;;;;;5028635;28;20103;-64
2023/09/02 00:38:48;;;;;;;1.27;1.17;;;18.70;82.00;;;;;;5025686;28;20033;-64
2023/09/02 00:41:22;;;;;;;3.67;1.80;;;18.70;82.00;;;;;;5027853;28;20128;-64
2023/09/02 00:43:51;;;;;;;3.58;1.50;;;18.70;82.60;;;;;;5042654;28;20044;-64
2023/09/02 00:46:17;;;;;;;2.83;1.65;;;18.70;82.10;;;;;;5029050;28;20048;-63
2023/09/02 00:48:42;;;;;;;2.53;1.45;;;18.70;82.20;;;;;;5025712;28;20382;-64
2023/09/02 00:51:09;;;;;;;1.38;1.27;;;18.70;82.40;;;;;;5027613;28;20863;-64
2023/09/02 00:53:34;;;;;;;1.75;1.42;;;18.70;82.60;;;;;;5024545;28;20405;-63
2023/09/02 00:56:01;;;;;;;1.52;1.42;;;18.60;82.50;;;;;;5027484;28;20056;-64
2023/09/02 00:58:27;;;;;;;1.40;1.30;;;18.70;82.60;;;;;;5025298;28;20219;-64
2023/09/02 01:00:53;;;;;;;2.65;1.77;;;18.60;82.60;;;;;;5018277;28;20485;-65
2023/09/02 01:03:18;;;;;;;1.40;1.30;;;18.80;82.70;;;;;;5022637;28;20033;-64
2023/09/02 01:05:44;;;;;;;4.22;1.50;;;18.60;82.50;;;;;;5025877;28;20044;-64
2023/09/02 01:08:13;;;;;;;1.52;1.42;;;18.70;82.40;;;;;;5026055;28;20521;-65
2023/09/02 01:10:39;;;;;;;2.05;1.40;;;18.60;82.50;;;;;;5028317;28;20049;-65
2023/09/02 01:13:05;;;;;;;2.00;1.33;;;18.60;82.50;;;;;;5030457;28;20041;-64
2023/09/02 01:15:31;;;;;;;1.75;1.55;;;18.60;82.60;;;;;;5030911;28;20034;-63
2023/09/02 01:17:57;;;;;;;1.48;1.38;;;18.60;82.60;;;;;;5024993;28;20397;-65
2023/09/02 01:20:27;;;;;;;2.92;1.58;;;18.60;82.50;;;;;;5024425;28;20040;-64
2023/09/02 01:23:21;;;;;;;2.08;1.65;;;18.60;82.70;;;;;;5029502;28;20566;-64
2023/09/02 01:26:10;;;;;;;3.45;1.90;;;18.60;83.30;;;;;;5028551;28;20057;-62
2023/09/02 01:28:40;;;;;;;5.47;1.92;;;18.60;83.00;;;;;;5021852;28;20036;-64
2023/09/02 01:31:12;;;;;;;2.03;1.70;;;18.50;82.40;;;;;;5026003;28;20088;-64
2023/09/02 01:33:40;;;;;;;3.13;1.80;;;18.50;83.40;;;;;;5026099;28;20075;-64
2023/09/02 01:36:06;;;;;;;2.03;1.60;;;18.60;82.50;;;;;;5022866;28;20045;-64
2023/09/02 01:38:33;;;;;;;2.05;1.58;;;18.60;82.50;;;;;;5028094;28;20508;-64
2023/09/02 01:41:02;;;;;;;2.10;1.83;;;18.60;82.60;;;;;;5030019;28;20052;-61
2023/09/02 01:43:29;;;;;;;7.65;1.83;;;18.50;82.60;;;;;;5027887;28;20508;-64
2023/09/02 01:45:56;;;;;;;2.55;2.03;;;18.50;82.40;;;;;;5025435;28;20041;-64
2023/09/02 01:48:23;;;;;;;3.83;1.70;;;18.50;82.40;;;;;;5022539;28;20391;-63
2023/09/02 01:50:52;;;;;;;1.88;1.75;;;18.40;82.30;;;;;;5024621;28;20048;-64
2023/09/02 01:53:17;;;;;;;2.08;1.85;;;18.40;82.40;;;;;;5025903;28;20040;-65
2023/09/02 01:55:45;;;;;;;2.38;1.90;;;18.40;82.40;;;;;;5024125;28;20033;-64
2023/09/02 01:58:11;;;;;;;2.83;1.70;;;18.30;82.20;;;;;;5028489;28;20029;-64
2023/09/02 02:00:38;;;;;;;1.73;1.63;;;18.30;82.10;;;;;;5024308;28;20444;-64
2023/09/02 02:03:08;;;;;;;2.47;1.90;;;18.30;82.00;;;;;;5029212;28;20037;-64
2023/09/02 02:05:52;;;;;;;2.08;1.60;;;18.30;82.10;;;;;;5024364;28;20044;-65
2023/09/02 02:08:35;;;;;;;4.43;1.98;;;18.30;82.30;;;;;;5026340;28;20029;-64
2023/09/02 02:11:02;;;;;;;5.00;1.65;;;18.20;82.00;;;;;;5019182;28;20398;-64
2023/09/02 02:13:27;;;;;;;2.28;1.67;;;18.20;81.80;;;;;;5022934;28;20041;-65
2023/09/02 02:15:53;;;;;;;2.15;1.95;;;18.10;81.70;;;;;;5027353;28;20041;-63
2023/09/02 02:18:19;;;;;;;2.50;1.70;;;18.10;81.70;;;;;;5031461;28;20116;-63
2023/09/02 02:21:00;;;;;;;4.32;1.88;;;18.00;81.90;;;;;;5024375;28;20076;-64
2023/09/02 02:23:25;;;;;;;2.47;2.05;;;18.00;82.00;;;;;;5028479;28;20045;-64
2023/09/02 02:25:51;;;;;;;2.75;2.25;;;17.90;81.90;;;;;;5028299;28;20099;-63
2023/09/02 02:28:17;;;;;;;2.53;2.10;;;17.90;82.20;;;;;;5021949;28;20025;-63
2023/09/02 02:30:43;;;;;;;2.42;2.00;;;17.80;82.40;;;;;;5025856;28;20091;-63
2023/09/02 02:33:08;;;;;;;2.88;2.00;;;17.80;82.40;;;;;;5028938;28;20527;-63
2023/09/02 02:35:34;;;;;;;2.20;1.70;;;17.70;82.40;;;;;;5028756;28;20041;-63
2023/09/02 02:38:00;;;;;;;2.67;1.52;;;17.70;82.40;;;;;;5030583;28;20033;-64
2023/09/02 02:40:26;;;;;;;1.75;1.50;;;17.70;82.40;;;;;;5029398;28;20512;-64
2023/09/02 02:42:52;;;;;;;1.60;1.50;;;17.60;82.50;;;;;;5026459;28;20076;-64
2023/09/02 02:45:17;;;;;;;1.67;1.50;;;17.60;82.50;;;;;;5029484;28;20187;-63
2023/09/02 02:47:43;;;;;;;2.55;1.70;;;17.60;82.60;;;;;;5026596;28;20040;-64
2023/09/02 02:50:09;;;;;;;2.40;1.40;;;17.50;82.70;;;;;;5033803;28;20025;-64
2023/09/02 02:52:34;;;;;;;1.77;1.30;;;17.50;82.70;;;;;;5027852;28;20511;-63
2023/09/02 02:55:00;;;;;;;1.88;1.27;;;17.40;82.80;;;;;;5027153;28;20709;-64
2023/09/02 02:57:26;;;;;;;1.50;1.40;;;17.40;82.90;;;;;;5026101;28;20034;-63
2023/09/02 02:59:51;;;;;;;3.17;1.23;;;17.40;83.00;;;;;;5025546;28;20033;-63
2023/09/02 03:02:17;;;;;;;1.52;1.40;;;17.40;83.10;;;;;;5028036;28;20030;-63
2023/09/02 03:04:47;;;;;;;1.52;1.30;;;17.30;82.90;;;;;;5032105;28;20072;-64
2023/09/02 03:07:17;;;;;;;1.40;1.10;;;17.30;82.90;;;;;;5026186;28;20121;-63
2023/09/02 03:09:42;;;;;;;1.33;1.20;;;17.30;82.90;;;;;;5030670;28;20037;-63
2023/09/02 03:12:08;;;;;;;3.10;1.45;;;17.30;82.90;;;;;;5030700;28;20140;-63
2023/09/02 03:14:34;;;;;;;1.88;1.40;;;17.30;83.00;;;;;;5031687;28;20041;-63
2023/09/02 03:16:59;;;;;;;1.27;1.17;;;17.30;83.10;;;;;;5033413;28;20060;-63
2023/09/02 03:19:29;;;;;;;1.35;1.25;;;17.30;82.90;;;;;;5026825;28;20046;-64
2023/09/02 03:21:54;;;;;;;3.38;1.60;;;17.20;82.90;;;;;;5029288;28;20049;-63
2023/09/02 03:24:20;;;;;;;1.73;1.23;;;17.20;82.90;;;;;;5031295;28;20115;-62
2023/09/02 03:26:46;;;;;;;2.17;1.30;;;17.20;83.10;;;;;;5024383;28;20034;-62
2023/09/02 03:29:11;;;;;;;1.60;1.38;;;17.10;83.30;;;;;;5025951;28;20368;-62
2023/09/02 03:31:37;;;;;;;1.45;1.30;;;17.00;83.40;;;;;;5030800;28;20048;-63
2023/09/02 03:34:02;;;;;;;1.42;1.25;;;17.00;83.40;;;;;;5029958;28;20037;-63
2023/09/02 03:36:28;;;;;;;2.38;1.40;;;17.00;83.40;;;;;;5029681;28;20033;-63
2023/09/02 03:38:53;;;;;;;1.90;1.50;;;17.00;83.40;;;;;;5029785;28;20191;-63
2023/09/02 03:41:20;;;;;;;1.65;1.45;;;17.00;83.30;;;;;;5027860;28;20072;-63
2023/09/02 03:43:46;;;;;;;1.63;1.40;;;17.00;83.30;;;;;;5025370;28;20121;-63
2023/09/02 03:46:13;;;;;;;2.63;1.50;;;16.90;83.30;;;;;;5027013;28;20044;-64
2023/09/02 03:48:39;;;;;;;2.78;1.45;;;16.80;83.30;;;;;;5029079;28;20052;-64
2023/09/02 03:51:12;;;;;;;1.77;1.33;;;16.80;83.40;;;;;;5025064;28;20037;-63
2023/09/02 03:53:41;;;;;;;4.32;1.50;;;16.70;83.70;;;;;;5025022;28;20087;-62
2023/09/02 03:56:07;;;;;;;2.13;1.23;;;16.70;84.00;;;;;;5025175;28;20096;-63
2023/09/02 03:58:33;;;;;;;2.63;1.50;;;16.60;84.00;;;;;;5025538;28;20047;-64
2023/09/02 04:00:58;;;;;;;1.30;1.20;;;16.60;84.00;;;;;;5022724;28;20037;-63
2023/09/02 04:03:26;;;;;;;2.25;1.40;;;16.60;84.00;;;;;;5027228;28;20036;-63
2023/09/02 04:05:52;;;;;;;2.55;1.40;;;16.60;84.00;;;;;;5025452;28;20049;-62
2023/09/02 04:08:19;;;;;;;1.63;1.38;;;16.60;84.10;;;;;;5028152;28;20084;-63
2023/09/02 04:10:51;;;;;;;1.90;1.20;;;16.60;84.10;;;;;;5024309;28;20042;-64
2023/09/02 04:13:16;;;;;;;4.22;1.40;;;16.60;84.00;;;;;;5027200;28;20037;-64
2023/09/02 04:15:42;;;;;;;1.98;1.38;;;16.60;83.70;;;;;;5025556;28;20038;-63
2023/09/02 04:18:07;;;;;;;1.58;1.15;;;16.70;83.60;;;;;;5029570;28;20033;-64
2023/09/02 04:20:36;;;;;;;1.20;1.10;;;16.60;83.30;;;;;;5024134;28;20041;-63
2023/09/02 04:23:02;;;;;;;2.50;1.55;;;16.60;83.30;;;;;;5026543;28;20411;-63
2023/09/02 04:25:27;;;;;;;1.48;1.35;;;16.60;83.20;;;;;;5026368;28;20535;-63
2023/09/02 04:27:53;;;;;;;2.35;1.35;;;16.60;83.20;;;;;;5029133;28;20444;-63
2023/09/02 04:30:18;;;;;;;5.47;1.75;;;16.50;83.30;;;;;;5025481;28;20033;-64
2023/09/02 04:32:47;;;;;;;1.92;1.25;;;16.50;83.50;;;;;;5024275;28;20049;-63
2023/09/02 04:35:13;;;;;;;2.47;1.35;;;16.50;83.70;;;;;;5032220;28;20047;-63
2023/09/02 04:37:38;;;;;;;1.58;1.40;;;16.50;83.60;;;;;;5029134;28;20037;-63
2023/09/02 04:40:08;;;;;;;2.22;1.25;;;16.40;83.50;;;;;;5024967;28;20036;-63
2023/09/02 04:42:34;;;;;;;2.33;1.05;;;16.40;83.60;;;;;;5025974;28;20281;-63
2023/09/02 04:44:59;;;;;;;1.77;1.50;;;16.30;83.70;;;;;;5030099;28;20045;-63
2023/09/02 04:47:25;;;;;;;2.45;1.48;;;16.30;83.80;;;;;;5027851;28;20033;-64
2023/09/02 04:49:50;;;;;;;3.35;1.50;;;16.30;84.00;;;;;;5029297;28;20129;-63
2023/09/02 04:52:16;;;;;;;2.05;1.40;;;16.30;84.10;;;;;;5025748;28;20068;-63
2023/09/02 04:54:45;;;;;;;2.58;1.83;;;16.20;84.90;;;;;;5024890;28;20523;-63
2023/09/02 04:57:13;;;;;;;1.52;1.40;;;16.30;84.30;;;;;;5028807;28;20033;-63
2023/09/02 04:59:39;;;;;;;2.50;1.50;;;16.20;84.30;;;;;;5026639;28;20064;-63
2023/09/02 05:02:05;;;;;;;2.03;1.48;;;16.20;84.40;;;;;;5027092;28;20468;-63
2023/09/02 05:04:33;;;;;;;2.38;1.58;;;16.10;84.60;;;;;;5026394;28;20033;-64
2023/09/02 05:06:59;;;;;;;2.58;1.48;;;16.10;85.00;;;;;;5027149;28;20079;-64
2023/09/02 05:09:24;;;;;;;1.90;1.58;;;16.10;85.10;;;;;;5032552;28;20033;-63
2023/09/02 05:11:50;;;;;;;3.22;1.50;;;16.10;85.20;;;;;;5027590;28;20026;-63
2023/09/02 05:14:15;;;;;;;2.67;1.52;;;16.10;85.30;;;;;;5029799;28;20052;-63
2023/09/02 05:16:41;;;;;;;3.70;1.70;;;16.20;85.50;;;;;;5029278;28;20116;-64
2023/09/02 05:19:10;;;;;;;1.77;1.48;;;16.20;85.50;;;;;;5029160;28;20060;-63
2023/09/02 05:21:35;;;;;;;2.83;1.55;;;16.20;85.50;;;;;;5028602;28;20734;-63
2023/09/02 05:24:01;;;;;;;1.63;1.52;;;16.30;85.50;;;;;;5027052;28;20095;-63
2023/09/02 05:26:27;;;;;;;1.70;1.52;;;16.30;86.50;;;;;;5026369;28;20461;-63
2023/09/02 05:28:52;;;;;;;3.15;1.67;;;16.30;85.70;;;;;;5028136;28;20037;-62
2023/09/02 05:31:18;;;;;;;1.98;1.75;;;16.40;85.70;;;;;;5030630;28;20040;-63
2023/09/02 05:33:44;;;;;;;3.47;1.63;;;16.30;85.80;;;;;;5034949;28;20044;-62
2023/09/02 05:36:09;;;;;;;1.60;1.30;;;16.50;85.90;;;;;;5035994;28;20234;-63
2023/09/02 05:38:35;;;;;;;1.67;1.45;;;16.50;85.80;;;;;;5035214;28;20634;-63
2023/09/02 05:41:00;;;;;;;2.50;1.67;;;16.50;85.80;;;;;;5035550;28;20056;-63
2023/09/02 05:43:28;;;;;;;1.40;1.30;;;16.60;85.80;;;;;;5036173;28;20033;-63
2023/09/02 05:45:56;;;;;;;1.60;1.50;;;16.60;85.70;;;;;;5034508;28;20500;-63
2023/09/02 05:48:22;;;;;;;2.33;1.77;;;16.60;85.70;;;;;;5030455;28;20065;-63
2023/09/02 05:50:47;;;;;;;2.53;1.80;;;16.70;85.70;;;;;;5029020;28;20063;-63
2023/09/02 05:53:13;;;;;;;2.00;1.88;;;16.70;85.80;;;;;;5032845;28;20524;-63
2023/09/02 05:55:38;;;;;;;4.07;2.22;;;16.70;85.90;;;;;;5035438;28;20052;-63
2023/09/02 05:58:07;;;;;;;2.20;2.00;;;16.70;86.00;;;;;;5035145;28;20116;-63
2023/09/02 06:00:32;;;;;;;2.55;1.90;;;16.80;86.10;;;;;;5030082;28;20036;-63
2023/09/02 06:02:58;;;;;;;2.22;2.08;;;16.80;86.20;;;;;;5032730;28;20536;-62
2023/09/02 06:05:24;;;;;;;2.00;1.90;;;16.80;86.30;;;;;;5035299;28;20091;-64
2023/09/02 06:07:49;;;;;;;2.42;2.10;;;16.80;86.50;;;;;;5039128;28;20501;-62
2023/09/02 06:10:15;;;;;;;2.97;2.10;;;16.90;86.70;;;;;;5037349;28;20137;-63
2023/09/02 06:12:40;;;;;;;2.75;1.83;;;16.90;86.70;;;;;;5031463;28;20033;-63
2023/09/02 06:15:06;;;;;;;2.45;2.03;;;16.90;86.80;;;;;;5034095;28;20596;-63
2023/09/02 06:17:33;;;;;;;3.58;1.88;;;17.00;86.90;;;;;;5036291;28;20428;-63
2023/09/02 06:19:59;;;;;;;4.95;1.98;;;17.00;86.90;;;;;;5038796;28;20033;-63
2023/09/02 06:22:25;;;;;;;2.50;2.13;;;17.10;87.30;;;;;;5038062;28;20038;-62
2023/09/02 06:24:52;;;;;;;2.20;2.00;;;17.10;87.60;;;;;;5038083;28;20038;-63
2023/09/02 06:27:18;;;;;;;3.10;2.00;;;17.10;88.00;;;;;;5038068;28;20166;-63
2023/09/02 06:29:48;;;;;;;2.33;2.13;;;17.20;88.10;;;;;;5038847;28;20129;-63
2023/09/02 06:32:14;;;;;;;1.98;1.83;;;17.20;88.10;;;;;;5032695;28;20168;-63
2023/09/02 06:34:40;;;;;;;3.13;2.40;;;17.20;88.40;;;;;;5029029;28;20559;-65
2023/09/02 06:37:05;;;;;;;3.90;2.40;;;17.30;88.80;;;;;;5026562;28;20409;-63
2023/09/02 06:39:31;;;;;;;2.38;2.03;;;17.30;88.70;;;;;;5000513;28;20042;-63
2023/09/02 06:41:56;;;;;;;4.10;2.15;;;17.30;89.00;;;;;;5019141;28;20045;-64
2023/09/02 06:44:22;;;;;;;3.03;1.92;;;17.40;89.30;;;;;;5010758;28;20578;-63
2023/09/02 06:46:47;;;;;;;3.10;2.30;;;17.40;89.30;;;;;;5018420;28;20416;-64
2023/09/02 06:49:13;;;;;;;3.33;2.15;;;17.40;89.30;;;;;;5025620;28;20077;-64
2023/09/02 06:51:38;;;;;;;3.58;2.40;;;17.50;89.20;;;;;;5029389;28;20069;-64
2023/09/02 06:54:04;;;;;;;2.75;2.03;;;17.50;89.30;;;;;;5025684;28;20572;-64
2023/09/02 06:56:29;;;;;;;1.85;1.73;;;17.60;89.20;;;;;;5026739;28;20045;-63
2023/09/02 06:58:55;;;;;;;2.72;2.10;;;17.60;89.10;;;;;;5024447;28;20037;-62
2023/09/02 07:01:26;;;;;;;2.50;2.30;;;17.70;89.00;;;;;;5011366;28;20152;-63
2023/09/02 07:03:55;;;;;;;3.65;2.00;;;17.80;89.10;;;;;;5023606;28;20033;-63
2023/09/02 07:06:21;;;;;;;3.00;2.60;;;17.80;89.00;;;;;;5017704;28;20045;-64
2023/09/02 07:08:47;;;;;;;3.35;2.30;;;17.90;89.10;;;;;;5022199;28;20045;-63
2023/09/02 07:11:13;;;;;;;2.70;2.28;;;18.00;89.10;;;;;;5029290;28;21759;-63
2023/09/02 07:13:39;;;;;;;2.95;2.58;;;18.10;89.00;;;;;;5025198;28;20637;-64
2023/09/02 07:16:08;;;;;;;2.53;2.13;;;18.20;89.00;;;;;;5031949;28;20086;-64
2023/09/02 07:18:34;;;;;;;2.63;2.30;;;18.20;88.90;;;;;;5027221;28;20528;-64
2023/09/02 07:21:00;;;;;;;6.05;2.95;;;18.30;88.80;;;;;;5023088;28;20040;-63
2023/09/02 07:23:27;;;;;;;4.47;2.70;;;18.40;88.80;;;;;;5030419;28;20037;-63
2023/09/02 07:25:52;;;;;;;2.90;2.60;;;18.40;88.70;;;;;;5026047;28;20076;-64
2023/09/02 07:28:18;;;;;;;3.90;3.10;;;18.50;88.60;;;;;;5030220;28;20066;-63
2023/09/02 07:30:44;;;;;;;3.58;2.92;;;18.60;88.70;;;;;;5027512;28;20536;-64
2023/09/02 07:33:12;;;;;;;3.60;2.58;;;18.60;88.80;;;;;;5025091;28;20135;-65
2023/09/02 07:35:39;;;;;;;4.43;2.97;;;18.70;89.00;;;;;;5021002;28;20063;-62
2023/09/02 07:38:05;;;;;;;6.70;2.67;;;18.80;89.60;;;;;;5026502;28;20036;-63
2023/09/02 07:40:31;;;;;;;5.28;3.10;;;18.90;88.60;;;;;;5029548;28;20449;-63
2023/09/02 07:42:59;;;;;;;3.28;2.95;;;19.00;88.50;;;;;;5029433;28;20668;-63
2023/09/02 07:45:25;;;;;;;3.42;3.13;;;19.10;88.30;;;;;;5031604;28;20045;-64
2023/09/02 07:47:51;;;;;;;3.80;3.28;;;19.20;88.00;;;;;;5031655;28;20033;-62
2023/09/02 07:50:16;;;;;;;4.32;3.28;;;19.20;87.80;;;;;;5025571;28;20095;-63
2023/09/02 07:52:42;;;;;;;3.70;3.00;;;19.30;87.60;;;;;;5022181;28;20049;-63
2023/09/02 07:55:08;;;;;;;4.72;3.58;;;19.40;87.40;;;;;;5019853;28;20041;-63
2023/09/02 07:57:33;;;;;;;3.58;3.20;;;19.50;87.30;;;;;;5029360;28;20030;-63
2023/09/02 08:00:00;;;;;;;5.07;3.30;;;19.50;86.70;;;;;;5028785;28;20622;-63
2023/09/02 08:02:25;;;;;;;4.20;3.28;;;19.60;86.40;;;;;;5029141;28;20450;-65
2023/09/02 08:04:51;;;;;;;4.28;3.13;;;19.80;86.30;;;;;;5031757;28;20114;-63
2023/09/02 08:07:17;;;;;;;3.60;3.30;;;19.80;86.20;;;;;;5029665;28;20075;-64
2023/09/02 08:09:42;;;;;;;4.70;3.40;;;19.80;86.00;;;;;;5028158;28;20033;-62
2023/09/02 08:12:08;;;;;;;3.92;3.22;;;19.90;85.70;;;;;;5026002;28;20057;-64
2023/09/02 08:14:34;;;;;;;3.50;2.85;;;20.00;85.30;;;;;;5024968;28;20826;-62
2023/09/02 08:16:59;;;;;;;5.28;3.03;;;20.10;85.30;;;;;;5028582;28;21032;-63
2023/09/02 08:19:25;;;;;;;3.10;2.42;;;20.20;85.00;;;;;;5022496;28;20037;-64
2023/09/02 08:21:53;;;;;;;4.05;2.85;;;20.30;85.70;;;;;;5033393;28;20033;-64
2023/09/02 08:24:19;;;;;;;2.80;2.45;;;20.30;84.50;;;;;;5030546;28;20052;-63
2023/09/02 08:26:45;;;;;;;3.05;2.30;;;20.50;84.60;;;;;;5025669;28;20069;-62
2023/09/02 08:29:10;;;;;;;2.50;2.30;;;20.50;84.10;;;;;;5032033;28;20037;-64
2023/09/02 08:31:36;;;;;;;4.65;2.13;;;20.60;83.50;;;;;;5029121;28;20714;-63
2023/09/02 08:34:01;;;;;;;2.30;2.08;;;20.70;83.10;;;;;;5031994;28;20052;-64
2023/09/02 08:36:27;;;;;;;3.20;2.00;;;20.80;83.30;;;;;;5032837;28;20064;-64
2023/09/02 08:38:53;;;;;;;3.95;2.17;;;20.90;83.20;;;;;;5024994;28;20091;-63
2023/09/02 08:41:45;;;;;;;2.55;1.95;;;21.00;82.90;;;;;;5031427;28;20397;-63
2023/09/02 08:44:15;;;;;;;3.10;2.13;;;21.10;83.30;;;;;;5033524;28;20108;-63
2023/09/02 08:46:42;;;;;;;1.95;1.80;;;21.20;82.60;;;;;;5031865;28;20029;-64
2023/09/02 08:49:09;;;;;;;2.30;1.90;;;21.30;82.60;;;;;;5031319;28;20052;-64
2023/09/02 08:51:35;;;;;;;4.00;2.20;;;21.40;82.30;;;;;;5033162;28;20048;-63
2023/09/02 08:54:02;;;;;;;3.50;1.83;;;21.40;82.00;;;;;;5027237;28;20433;-64
2023/09/02 08:56:29;;;;;;;3.17;1.90;;;21.50;81.90;;;;;;5025405;28;20644;-65
2023/09/02 08:58:55;;;;;;;2.08;1.85;;;21.60;81.90;;;;;;5019938;28;20045;-64
2023/09/02 09:01:22;;;;;;;2.13;1.63;;;21.80;81.90;;;;;;5021906;28;20033;-63
2023/09/02 09:03:53;;;;;;;3.30;1.67;;;21.80;81.70;;;;;;5031527;28;20049;-63
2023/09/02 09:06:23;;;;;;;2.50;1.70;;;21.90;81.50;;;;;;5026486;28;20038;-63
2023/09/02 09:08:51;;;;;;;3.35;1.50;;;22.00;81.30;;;;;;5027485;28;20061;-64
2023/09/02 09:11:17;;;;;;;1.58;1.48;;;22.10;81.00;;;;;;5023711;28;20036;-64
2023/09/02 09:13:46;;;;;;;1.60;1.50;;;22.20;80.80;;;;;;5022722;28;20068;-64
2023/09/02 09:16:16;;;;;;;4.05;1.50;;;22.30;81.20;;;;;;5029642;28;20451;-63
2023/09/02 09:18:42;;;;;;;1.85;1.63;;;22.40;78.80;;;;;;5031978;28;20033;-63
2023/09/02 09:21:08;;;;;;;4.20;1.38;;;22.50;78.80;;;;;;5033057;28;20029;-65
2023/09/02 09:23:36;;;;;;;1.90;1.40;;;22.60;78.60;;;;;;5033770;28;20044;-64
2023/09/02 09:26:03;;;;;;;2.67;1.55;;;22.70;77.70;;;;;;5032601;28;20041;-63
2023/09/02 09:28:58;;;;;;;1.30;1.17;;;22.80;77.40;;;;;;5027172;28;20527;-63
2023/09/02 09:31:25;;;;;;;1.83;1.48;;;22.90;75.60;;;;;;5030774;28;20489;-63
2023/09/02 09:33:54;;;;;;;1.73;1.50;;;23.00;76.90;;;;;;5030559;28;20036;-64
2023/09/02 09:36:21;;;;;;;2.72;1.40;;;23.10;76.90;;;;;;5032790;28;20029;-63
2023/09/02 09:38:49;;;;;;;2.45;1.42;;;23.20;76.20;;;;;;5029203;28;20404;-63
2023/09/02 09:41:14;;;;;;;1.67;1.20;;;23.20;74.10;;;;;;5033060;28;20048;-63
2023/09/02 09:43:40;;;;;;;2.03;1.30;;;23.30;73.70;;;;;;5036958;28;20034;-62
2023/09/02 09:46:05;;;;;;;1.52;1.42;;;23.40;74.00;;;;;;5037647;28;20504;-64
2023/09/02 09:48:31;;;;;;;3.28;1.40;;;23.50;73.30;;;;;;5035895;28;20120;-63
2023/09/02 09:50:57;;;;;;;1.15;1.08;;;23.60;73.50;;;;;;5028735;28;20543;-63
2023/09/02 09:53:24;;;;;;;2.28;1.23;;;23.60;73.40;;;;;;5037098;28;20107;-63
2023/09/02 09:55:50;;;;;;;2.17;1.33;;;23.70;73.00;;;;;;5033246;28;20384;-63
2023/09/02 09:58:22;;;;;;;2.45;1.17;;;23.80;72.60;;;;;;5035139;28;20037;-63
2023/09/02 10:00:52;;;;;;;2.17;1.40;;;23.90;71.90;;;;;;5031552;28;20034;-63
2023/09/02 10:03:32;;;;;;;1.38;1.27;;;24.10;71.60;;;;;;5040364;28;20074;-61
2023/09/02 10:05:59;;;;;;;1.65;1.20;;;24.20;70.20;;;;;;5038993;28;20041;-63
2023/09/02 10:08:25;;;;;;;1.88;1.20;;;24.30;70.70;;;;;;5039053;28;20487;-62
2023/09/02 10:10:50;;;;;;;1.45;1.20;;;24.40;70.30;;;;;;5038169;28;20117;-63
2023/09/02 10:13:17;;;;;;;2.88;1.33;;;24.50;70.00;;;;;;5039093;28;20068;-63
2023/09/02 10:15:43;;;;;;;1.38;1.27;;;24.50;68.50;;;;;;5040410;28;20516;-64
2023/09/02 10:18:08;;;;;;;1.98;1.30;;;24.60;68.20;;;;;;5040023;28;20322;-63
2023/09/02 10:20:35;;;;;;;1.80;1.40;;;24.70;68.50;;;;;;5039211;28;20133;-64
2023/09/02 10:23:10;;;;;;;3.47;1.70;;;24.70;68.90;;;;;;5039772;28;20033;-62
2023/09/02 10:25:58;;;;;;;2.22;1.50;;;24.80;67.80;;;;;;5040281;28;20045;-63
2023/09/02 10:28:43;;;;;;;2.35;1.30;;;24.90;67.40;;;;;;5040027;28;20033;-62
2023/09/02 10:31:22;;;;;;;1.87;1.17;;;25.00;67.10;;;;;;5039470;28;20035;-64
2023/09/02 10:34:00;;;;;;;1.30;1.20;;;25.10;66.40;;;;;;5037258;28;20280;-64
2023/09/02 10:36:28;;;;;;;1.77;1.15;;;25.10;66.10;;;;;;5037038;28;20044;-63
2023/09/02 10:38:57;;;;;;;1.40;1.30;;;25.20;67.00;;;;;;5034985;28;20041;-63
2023/09/02 10:41:25;;;;;;;1.08;0.95;;;25.30;67.40;;;;;;5037439;28;20052;-64
2023/09/02 10:43:51;;;;;;;2.38;1.20;;;25.30;66.70;;;;;;5036868;28;20033;-62
2023/09/02 10:46:16;;;;;;;1.33;1.23;;;25.40;66.10;;;;;;5028783;28;20662;-63
2023/09/02 10:48:44;;;;;;;1.23;1.13;;;25.40;66.20;;;;;;5034835;28;20169;-63
2023/09/02 10:51:11;;;;;;;1.48;1.20;;;25.50;66.00;;;;;;5028991;28;20432;-65
2023/09/02 10:53:51;;;;;;;2.70;1.45;;;25.50;65.90;;;;;;5032848;28;20040;-63
2023/09/02 10:56:35;;;;;;;1.90;1.15;;;25.50;64.60;;;;;;5037145;28;20033;-63
2023/09/02 10:59:03;;;;;;;2.28;1.25;;;25.60;64.30;;;;;;5034075;28;20064;-64
2023/09/02 11:01:46;;;;;;;3.10;1.30;;;25.60;64.90;;;;;;5035082;28;20041;-63
2023/09/02 11:04:12;;;;;;;1.30;1.20;;;25.60;63.70;;;;;;5036757;28;20041;-64
2023/09/02 11:06:57;;;;;;;1.30;1.20;;;25.70;64.90;;;;;;5035120;28;20041;-63
2023/09/02 11:09:54;;;;;;;1.83;1.13;;;25.70;64.50;;;;;;5036009;28;20029;-64
2023/09/02 11:12:20;;;;;;;1.55;1.10;;;25.80;63.20;;;;;;5028904;28;20040;-64
2023/09/02 11:15:08;;;;;;;1.45;1.17;;;25.80;64.20;;;;;;5031088;28;20037;-63
2023/09/02 11:17:38;;;;;;;1.35;1.20;;;25.90;62.80;;;;;;5030808;28;20029;-63
2023/09/02 11:20:06;;;;;;;1.80;1.42;;;25.90;63.50;;;;;;5036461;28;20069;-65
2023/09/02 11:22:52;;;;;;;3.15;1.40;;;25.90;63.70;;;;;;5023072;28;20076;-65
2023/09/02 11:25:29;;;;;;;1.65;1.20;;;25.90;61.70;;;;;;5034418;28;20808;-64
2023/09/02 11:27:56;;;;;;;2.55;1.30;;;25.90;62.10;;;;;;5037300;28;20075;-63
2023/09/02 11:30:23;;;;;;;1.55;1.10;;;25.90;63.40;;;;;;5035329;28;20030;-63
2023/09/02 11:32:48;;;;;;;3.00;1.42;;;26.00;62.90;;;;;;5025851;28;20029;-63
2023/09/02 11:35:23;;;;;;;1.55;1.08;;;26.00;63.00;;;;;;5031683;28;20385;-63
2023/09/02 11:37:49;;;;;;;1.77;1.02;;;26.10;62.40;;;;;;5026978;28;20124;-63
2023/09/02 11:40:16;;;;;;;2.17;1.38;;;26.20;62.70;;;;;;5030347;28;20150;-64
2023/09/02 11:42:55;;;;;;;3.47;1.30;;;26.20;62.10;;;;;;5021415;28;20045;-61
2023/09/02 11:45:22;;;;;;;1.38;1.17;;;26.20;59.70;;;;;;5026601;28;20056;-63
2023/09/02 11:47:49;;;;;;;3.30;1.10;;;26.30;61.20;;;;;;5026660;28;20044;-63
2023/09/02 11:50:19;;;;;;;1.58;1.00;;;26.30;61.60;;;;;;5029090;28;20049;-64
2023/09/02 11:52:46;;;;;;;1.52;1.15;;;26.30;60.80;;;;;;5026201;28;20512;-64
2023/09/02 11:55:14;;;;;;;1.63;1.10;;;26.30;60.70;;;;;;5029575;28;20032;-64
2023/09/02 11:57:40;;;;;;;1.13;1.00;;;26.40;60.20;;;;;;5036925;28;20242;-64
2023/09/02 12:00:07;;;;;;;2.85;0.95;;;26.40;59.90;;;;;;5033862;28;20037;-64
2023/09/02 12:02:37;;;;;;;2.33;1.17;;;26.40;59.80;;;;;;5034579;28;20136;-63
2023/09/02 12:05:06;;;;;;;1.10;1.00;;;26.50;58.90;;;;;;5034057;28;20045;-64
2023/09/02 12:07:36;;;;;;;1.10;0.88;;;26.50;58.60;;;;;;5035022;28;20120;-64
2023/09/02 12:10:12;;;;;;;3.55;1.00;;;26.60;58.60;;;;;;5033284;28;20158;-64
2023/09/02 12:12:42;;;;;;;2.45;0.90;;;26.60;57.60;;;;;;5031084;28;20087;-64
2023/09/02 12:15:18;;;;;;;2.70;1.00;;;26.60;58.20;;;;;;5035813;28;20037;-64
2023/09/02 12:17:45;;;;;;;1.20;1.10;;;26.60;57.10;;;;;;5037451;28;20037;-65
2023/09/02 12:20:13;;;;;;;3.38;1.30;;;26.60;58.50;;;;;;5037452;28;20065;-64
2023/09/02 12:22:40;;;;;;;1.27;1.17;;;26.60;58.80;;;;;;5036922;28;20136;-64
2023/09/02 12:25:22;;;;;;;1.20;1.10;;;26.60;58.90;;;;;;5037943;28;20055;-63
2023/09/02 12:27:49;;;;;;;1.73;1.10;;;26.70;58.80;;;;;;5035444;28;20052;-63
2023/09/02 12:30:30;;;;;;;2.00;1.20;;;26.70;58.70;;;;;;5033929;28;20040;-66
2023/09/02 12:32:57;;;;;;;2.35;1.02;;;26.70;57.90;;;;;;5036637;28;20030;-63
2023/09/02 12:35:23;;;;;;;2.28;1.10;;;26.70;57.90;;;;;;5038020;28;20406;-64
2023/09/02 12:38:04;;;;;;;1.73;0.85;;;26.80;57.70;;;;;;5036270;28;20037;-63
2023/09/02 12:40:31;;;;;;;1.58;1.00;;;26.80;56.20;;;;;;5034219;28;20037;-63
2023/09/02 12:42:57;;;;;;;1.48;1.08;;;26.80;57.40;;;;;;5034361;28;20060;-63
2023/09/02 12:45:30;;;;;;;2.88;1.00;;;26.80;57.80;;;;;;5035835;28;20519;-64
2023/09/02 12:47:58;;;;;;;1.55;1.00;;;26.80;57.10;;;;;;5036121;28;20037;-63
2023/09/02 12:50:25;;;;;;;1.25;0.90;;;26.80;57.50;;;;;;5035163;28;20043;-64
2023/09/02 12:52:58;;;;;;;2.40;1.10;;;26.80;57.60;;;;;;5032756;28;20037;-62